Time;durP1;ratioP1;P1;durP2;ratioP2;P2;SDS_P1;SDS_P2;PMS_P1;PMS_P2;Temp;Humidity;BMP_temperature;BMP_pressure;BME280_temperature;BME280_humidity;BME280_pressure;Samples;Min_cycle;Max_cycle;Signal;HPM_P1;HPM_P2
2021/08/23 00:00:32;;;;;;;17.00;15.60;;;17.20;99.90;;;;;;4992609;28;20461;-56
2021/08/23 00:02:59;;;;;;;18.60;16.80;;;17.20;99.90;;;;;;5001082;28;20974;-55
2021/08/23 00:05:26;;;;;;;17.40;16.00;;;17.10;99.90;;;;;;5001284;28;20523;-55
2021/08/23 00:07:55;;;;;;;19.33;17.77;;;17.10;99.90;;;;;;5000866;28;20464;-52
2021/08/23 00:10:22;;;;;;;18.80;17.10;;;17.10;99.90;;;;;;5000829;28;20825;-56
2021/08/23 00:12:53;;;;;;;17.17;15.77;;;17.00;99.90;;;;;;4983667;28;20497;-53
2021/08/23 00:15:20;;;;;;;18.37;16.67;;;17.00;99.90;;;;;;4981467;28;20465;-56
2021/08/23 00:17:50;;;;;;;17.73;16.33;;;17.10;99.90;;;;;;4981052;28;20930;-54
2021/08/23 00:20:31;;;;;;;17.27;15.67;;;17.00;99.90;;;;;;4980977;28;20466;-52
2021/08/23 00:23:02;;;;;;;19.33;17.77;;;17.10;99.90;;;;;;4981201;28;20568;-50
2021/08/23 00:25:29;;;;;;;19.50;17.60;;;17.00;99.90;;;;;;4980865;28;20470;-53
2021/08/23 00:27:58;;;;;;;18.97;17.30;;;17.10;99.90;;;;;;4980711;28;20810;-56
2021/08/23 00:30:25;;;;;;;19.10;17.37;;;17.10;99.90;;;;;;4980855;28;20536;-55
2021/08/23 00:32:52;;;;;;;17.93;16.10;;;17.00;99.90;;;;;;4980572;28;20469;-51
2021/08/23 00:35:19;;;;;;;18.60;16.80;;;17.10;99.90;;;;;;4980750;28;20500;-56
2021/08/23 00:37:45;;;;;;;18.33;16.63;;;17.10;99.90;;;;;;4980455;28;20537;-54
2021/08/23 00:40:14;;;;;;;17.90;16.20;;;17.10;99.90;;;;;;4980635;28;20494;-55
2021/08/23 00:42:41;;;;;;;23.23;17.27;;;17.10;99.90;;;;;;4981071;28;20500;-55
2021/08/23 00:45:10;;;;;;;19.47;17.33;;;17.00;99.90;;;;;;4991781;28;20808;-56
2021/08/23 00:47:37;;;;;;;18.37;16.70;;;17.00;99.90;;;;;;4999945;28;20503;-54
2021/08/23 00:50:04;;;;;;;20.43;18.73;;;17.00;99.90;;;;;;4999446;28;20610;-52
2021/08/23 00:52:32;;;;;;;20.80;19.10;;;17.00;99.90;;;;;;4999910;28;20469;-55
2021/08/23 00:54:59;;;;;;;21.50;19.60;;;17.00;99.90;;;;;;5000017;28;20499;-54
2021/08/23 00:57:26;;;;;;;24.13;22.13;;;17.00;99.90;;;;;;5000019;28;20536;-53
2021/08/23 00:59:53;;;;;;;25.03;22.93;;;17.00;99.90;;;;;;4993557;28;20792;-52
2021/08/23 01:02:28;;;;;;;25.10;22.43;;;17.10;99.90;;;;;;4980915;28;20461;-56
2021/08/23 01:05:04;;;;;;;23.47;21.40;;;17.00;99.90;;;;;;4983594;28;20471;-54
2021/08/23 01:07:37;;;;;;;22.40;20.47;;;17.00;99.90;;;;;;4992178;28;20465;-56
2021/08/23 01:10:10;;;;;;;24.10;22.20;;;17.00;99.90;;;;;;4980445;28;20470;-56
2021/08/23 01:12:38;;;;;;;22.77;20.83;;;17.00;99.90;;;;;;4990465;28;20507;-56
2021/08/23 01:15:06;;;;;;;23.87;21.87;;;17.10;99.90;;;;;;4999532;28;20465;-57
2021/08/23 01:17:34;;;;;;;24.10;22.10;;;17.10;99.90;;;;;;4999335;28;20555;-57
2021/08/23 01:20:04;;;;;;;24.50;22.33;;;17.10;99.90;;;;;;4999678;28;20463;-56
2021/08/23 01:22:36;;;;;;;22.63;20.60;;;17.00;99.90;;;;;;4999780;28;20759;-53
2021/08/23 01:25:07;;;;;;;23.40;21.30;;;17.00;99.90;;;;;;4987218;28;20490;-56
2021/08/23 01:27:38;;;;;;;24.03;22.03;;;17.00;99.90;;;;;;4979516;28;20497;-55
2021/08/23 01:30:08;;;;;;;24.13;22.10;;;17.00;99.90;;;;;;4979771;28;20508;-55
2021/08/23 01:32:38;;;;;;;23.60;20.87;;;17.00;99.90;;;;;;4979835;28;20530;-56
2021/08/23 01:35:07;;;;;;;24.87;22.67;;;17.10;99.90;;;;;;4979905;28;20512;-56
2021/08/23 01:37:36;;;;;;;23.67;21.67;;;17.10;99.90;;;;;;4979265;28;20625;-56
2021/08/23 01:40:04;;;;;;;25.30;22.87;;;17.10;99.90;;;;;;4979215;28;20504;-57
2021/08/23 01:42:32;;;;;;;23.10;20.97;;;17.10;99.90;;;;;;4979732;28;20850;-56
2021/08/23 01:44:59;;;;;;;24.73;22.53;;;17.00;99.90;;;;;;4979554;28;20509;-55
2021/08/23 01:47:26;;;;;;;25.10;22.80;;;17.00;99.90;;;;;;4979481;28;20504;-54
2021/08/23 01:49:54;;;;;;;25.33;23.03;;;17.00;99.90;;;;;;4979344;28;20490;-57
2021/08/23 01:52:21;;;;;;;24.27;22.17;;;17.00;99.90;;;;;;4979331;28;20509;-55
2021/08/23 01:54:48;;;;;;;24.87;22.43;;;17.00;99.90;;;;;;4979499;28;20444;-57
2021/08/23 01:57:16;;;;;;;22.13;20.13;;;17.00;99.90;;;;;;4979945;28;20494;-52
2021/08/23 01:59:43;;;;;;;25.80;23.30;;;16.90;99.90;;;;;;4979229;28;20565;-56
2021/08/23 02:02:15;;;;;;;22.90;20.90;;;17.00;99.90;;;;;;4995963;28;20519;-55
2021/08/23 02:04:42;;;;;;;25.33;23.13;;;16.90;99.90;;;;;;4999103;28;20504;-55
2021/08/23 02:07:11;;;;;;;24.43;22.10;;;16.80;99.90;;;;;;4998619;28;20465;-54
2021/08/23 02:09:38;;;;;;;24.17;21.97;;;16.80;99.90;;;;;;4998107;28;20512;-55
2021/08/23 02:12:06;;;;;;;22.50;20.43;;;16.80;99.90;;;;;;4998509;28;20493;-57
2021/08/23 02:14:32;;;;;;;22.47;20.60;;;16.70;99.90;;;;;;4998223;28;20469;-57
2021/08/23 02:17:00;;;;;;;23.20;21.03;;;16.70;99.90;;;;;;4998284;28;20501;-57
2021/08/23 02:19:26;;;;;;;24.97;22.50;;;16.70;99.90;;;;;;4998809;28;20618;-57
2021/08/23 02:21:55;;;;;;;21.13;19.17;;;16.70;99.90;;;;;;4999336;28;20460;-55
2021/08/23 02:24:24;;;;;;;22.90;20.53;;;16.70;99.90;;;;;;5008927;28;20762;-57
2021/08/23 02:26:52;;;;;;;23.20;21.03;;;16.60;99.90;;;;;;4998474;28;20548;-56
2021/08/23 02:29:19;;;;;;;24.07;21.77;;;16.70;99.90;;;;;;4998596;28;20469;-57
2021/08/23 02:31:46;;;;;;;23.57;20.90;;;16.60;99.90;;;;;;4997856;28;20475;-56
2021/08/23 02:34:13;;;;;;;21.43;19.53;;;16.60;99.90;;;;;;4998025;28;20499;-55
2021/08/23 02:36:40;;;;;;;24.30;22.00;;;16.60;99.90;;;;;;4998339;28;20882;-53
2021/08/23 02:39:07;;;;;;;23.67;21.67;;;16.60;99.90;;;;;;4997826;28;20971;-54
2021/08/23 02:41:35;;;;;;;23.13;21.03;;;16.50;99.90;;;;;;4997906;28;20526;-56
2021/08/23 03:17:56;;;;;;;22.00;20.00;;;16.70;99.90;;;;;;4138824;23;20472;-58
2021/08/23 03:20:23;;;;;;;18.97;17.37;;;16.60;99.90;;;;;;4997753;28;20550;-55
2021/08/23 03:22:50;;;;;;;19.77;17.87;;;16.50;99.90;;;;;;4997982;28;20487;-58
2021/08/23 03:25:17;;;;;;;19.90;18.20;;;16.50;99.90;;;;;;4998058;28;20504;-59
2021/08/23 03:27:47;;;;;;;21.87;19.90;;;16.60;99.90;;;;;;5000250;28;20557;-56
2021/08/23 03:30:14;;;;;;;23.43;21.30;;;16.70;99.90;;;;;;5001625;28;20492;-59
2021/08/23 03:32:41;;;;;;;22.23;20.03;;;16.60;99.90;;;;;;5001472;28;20501;-57
2021/08/23 03:35:12;;;;;;;23.90;21.70;;;16.60;99.90;;;;;;5001571;28;20559;-54
2021/08/23 03:37:39;;;;;;;23.87;21.57;;;16.70;99.90;;;;;;5001237;28;20496;-56
2021/08/23 03:40:07;;;;;;;24.17;21.97;;;16.60;99.90;;;;;;5001014;28;20527;-59
2021/08/23 03:42:34;;;;;;;23.43;21.13;;;16.50;99.90;;;;;;5001454;28;20500;-59
2021/08/23 03:45:01;;;;;;;22.10;20.20;;;16.50;99.90;;;;;;4990960;28;20494;-59
2021/08/23 03:47:28;;;;;;;24.40;22.20;;;16.40;99.90;;;;;;4981827;28;20461;-59
2021/08/23 03:49:55;;;;;;;22.03;20.10;;;16.30;99.90;;;;;;4982035;28;20532;-56
2021/08/23 03:52:24;;;;;;;21.73;19.67;;;16.20;99.90;;;;;;4982009;28;20501;-58
2021/08/23 03:54:51;;;;;;;22.93;20.73;;;16.20;99.90;;;;;;4981980;28;20524;-59
2021/08/23 03:57:18;;;;;;;23.33;21.23;;;16.10;99.90;;;;;;4982500;28;20469;-59
2021/08/23 03:59:45;;;;;;;21.77;19.97;;;16.20;99.90;;;;;;4981466;28;20962;-59
2021/08/23 04:02:12;;;;;;;23.03;20.80;;;16.20;99.90;;;;;;4998879;28;20897;-59
2021/08/23 04:04:39;;;;;;;22.53;20.50;;;16.20;99.90;;;;;;5001072;28;20460;-54
2021/08/23 04:07:06;;;;;;;22.70;20.60;;;16.30;99.90;;;;;;5000212;28;20522;-56
2021/08/23 04:09:34;;;;;;;23.80;21.60;;;16.30;99.90;;;;;;4999772;28;20496;-59
2021/08/23 04:12:01;;;;;;;22.83;20.50;;;16.30;99.90;;;;;;4999193;28;20822;-58
2021/08/23 04:14:29;;;;;;;23.40;21.03;;;16.40;99.90;;;;;;4999344;28;20493;-54
2021/08/23 04:16:56;;;;;;;23.20;21.00;;;16.40;99.90;;;;;;4999736;28;20528;-57
2021/08/23 04:19:25;;;;;;;23.33;21.23;;;16.40;99.90;;;;;;4999789;28;20528;-56
2021/08/23 04:21:52;;;;;;;24.87;22.47;;;16.40;99.90;;;;;;5000141;28;20464;-58
2021/08/23 04:24:19;;;;;;;23.60;21.50;;;16.50;99.90;;;;;;5000197;28;20465;-56
2021/08/23 04:26:47;;;;;;;23.60;21.50;;;16.50;99.90;;;;;;4999250;28;20510;-57
2021/08/23 04:29:15;;;;;;;22.00;20.10;;;16.50;99.90;;;;;;4998823;28;20500;-55
2021/08/23 04:31:42;;;;;;;22.27;20.20;;;16.50;99.90;;;;;;4998863;28;20475;-59
2021/08/23 04:34:09;;;;;;;21.50;19.47;;;16.60;99.90;;;;;;4998954;28;20850;-58
2021/08/23 05:11:13;;;;;;;25.87;23.53;;;16.70;99.90;;;;;;4106959;23;20539;-60
2021/08/23 05:13:40;;;;;;;26.93;24.43;;;16.70;99.90;;;;;;4999574;28;20468;-60
2021/08/23 05:16:07;;;;;;;27.20;24.60;;;16.80;99.90;;;;;;4999481;28;20889;-62
2021/08/23 05:52:26;;;;;;;32.97;29.67;;;16.60;99.90;;;;;;4065117;23;20539;-59
2021/08/23 05:54:55;;;;;;;30.93;27.47;;;16.70;99.90;;;;;;4998299;28;20464;-60
2021/08/23 05:57:24;;;;;;;30.37;27.10;;;16.70;99.90;;;;;;4995217;28;20468;-61
2021/08/23 05:59:51;;;;;;;28.20;25.30;;;16.90;99.90;;;;;;4987853;28;20565;-63
2021/08/23 06:02:18;;;;;;;27.63;24.83;;;17.10;99.90;;;;;;4991070;28;20504;-64
2021/08/23 06:04:45;;;;;;;30.67;27.40;;;17.10;99.90;;;;;;4999092;28;20464;-64
2021/08/23 06:07:14;;;;;;;27.03;23.47;;;17.20;99.90;;;;;;4982248;28;20513;-64
2021/08/23 06:09:42;;;;;;;26.53;23.83;;;17.30;99.90;;;;;;4979118;28;20466;-64
2021/08/23 06:12:11;;;;;;;27.47;24.67;;;17.30;99.90;;;;;;4979016;28;20500;-64
2021/08/23 06:14:40;;;;;;;27.27;24.17;;;17.30;99.90;;;;;;4987130;28;20460;-64
2021/08/23 06:17:07;;;;;;;28.93;24.63;;;17.40;99.90;;;;;;4998846;28;20500;-63
2021/08/23 06:19:34;;;;;;;29.10;25.20;;;17.40;99.90;;;;;;4998805;28;20496;-63
2021/08/23 06:22:01;;;;;;;26.63;23.93;;;17.50;99.90;;;;;;4998616;28;20559;-63
2021/08/23 06:24:28;;;;;;;27.53;24.53;;;17.50;99.90;;;;;;4998450;28;20810;-63
2021/08/23 06:26:57;;;;;;;26.60;23.77;;;17.60;99.90;;;;;;4998649;28;20559;-63
2021/08/23 06:29:23;;;;;;;30.27;25.07;;;17.60;99.90;;;;;;4998747;28;20501;-63
2021/08/23 06:31:54;;;;;;;27.10;24.30;;;17.50;99.90;;;;;;4989226;28;20505;-63
2021/08/23 06:34:20;;;;;;;29.10;26.03;;;17.30;99.90;;;;;;4978872;28;20466;-63
2021/08/23 06:36:50;;;;;;;27.97;25.00;;;17.30;99.90;;;;;;4979168;28;20472;-63
2021/08/23 06:39:20;;;;;;;30.60;26.63;;;17.30;99.90;;;;;;4978383;28;20775;-63
2021/08/23 06:41:54;;;;;;;29.07;26.03;;;17.10;99.90;;;;;;4978592;28;20509;-63
2021/08/23 06:44:23;;;;;;;31.13;27.93;;;17.10;99.90;;;;;;4979086;28;20960;-63
2021/08/23 06:46:52;;;;;;;32.87;29.37;;;17.10;99.90;;;;;;4978891;28;20560;-63
2021/08/23 06:49:19;;;;;;;31.40;28.20;;;17.20;99.90;;;;;;4978807;28;20466;-63
2021/08/23 06:51:48;;;;;;;31.93;28.50;;;17.20;99.90;;;;;;4978499;28;20995;-63
2021/08/23 06:54:15;;;;;;;34.60;31.03;;;17.30;99.90;;;;;;4978593;28;20497;-63
2021/08/23 06:56:42;;;;;;;35.73;31.93;;;17.20;99.90;;;;;;4978814;28;20504;-63
2021/08/23 06:59:10;;;;;;;36.50;32.63;;;17.30;99.90;;;;;;4978038;28;20592;-62
2021/08/23 07:01:41;;;;;;;38.10;34.00;;;17.30;99.90;;;;;;4978481;28;20749;-62
2021/08/23 07:04:08;;;;;;;38.40;33.57;;;17.20;99.90;;;;;;4978363;28;20944;-62
2021/08/23 07:06:35;;;;;;;41.00;35.20;;;17.10;99.90;;;;;;4978357;28;20470;-62
2021/08/23 07:09:03;;;;;;;41.93;34.93;;;17.10;99.90;;;;;;4978440;28;20524;-62
2021/08/23 07:11:32;;;;;;;42.70;36.50;;;17.00;99.90;;;;;;4984687;28;20547;-62
2021/08/23 07:14:01;;;;;;;41.83;33.97;;;17.10;99.90;;;;;;4997453;28;20600;-62
2021/08/23 07:16:32;;;;;;;39.27;32.83;;;17.00;99.90;;;;;;4997824;28;20766;-62
2021/08/23 07:19:00;;;;;;;40.67;34.47;;;17.10;99.90;;;;;;4994891;28;20488;-62
2021/08/23 07:21:27;;;;;;;40.17;34.70;;;17.00;99.90;;;;;;4988894;28;20776;-62
2021/08/23 07:23:54;;;;;;;35.00;30.33;;;17.00;99.90;;;;;;4988404;28;20497;-62
2021/08/23 07:26:21;;;;;;;33.00;29.67;;;17.00;99.90;;;;;;4993747;28;20500;-62
2021/08/23 08:04:30;;;;;;;9.93;9.03;;;17.60;99.90;;;;;;4995090;28;21078;-63
2021/08/23 08:06:59;;;;;;;11.77;10.67;;;17.70;99.90;;;;;;4997028;28;20460;-64
2021/08/23 08:09:26;;;;;;;10.73;9.83;;;17.80;99.90;;;;;;4997382;28;20559;-64
2021/08/23 08:11:53;;;;;;;13.30;12.10;;;17.80;99.90;;;;;;4987546;28;20528;-64
2021/08/23 08:14:21;;;;;;;12.97;11.80;;;17.80;99.90;;;;;;4979699;28;20462;-64
2021/08/23 08:16:48;;;;;;;16.63;15.03;;;17.80;99.90;;;;;;4980381;28;20439;-64
2021/08/23 08:19:18;;;;;;;17.00;15.40;;;18.00;99.90;;;;;;4981228;28;21012;-63
2021/08/23 08:21:46;;;;;;;19.83;17.80;;;17.90;1.00;;;;;;4981028;28;20469;-63
2021/08/23 08:24:14;;;;;;;19.87;18.00;;;17.90;1.00;;;;;;4980908;28;20473;-63
2021/08/23 08:26:40;;;;;;;25.07;22.77;;;17.80;1.00;;;;;;4981523;28;20461;-63
2021/08/23 09:03:03;;;;;;;23.40;21.20;;;17.40;99.90;;;;;;4299422;23;20587;-62
2021/08/23 09:05:37;;;;;;;22.77;20.57;;;17.20;99.90;;;;;;5000172;28;20469;-62
2021/08/23 09:08:05;;;;;;;25.47;23.17;;;17.20;99.90;;;;;;5000107;28;20439;-62
2021/08/23 09:10:34;;;;;;;28.67;25.80;;;17.00;99.90;;;;;;4999532;28;20516;-62
2021/08/23 09:13:07;;;;;;;30.67;27.50;;;16.90;99.90;;;;;;4980416;28;20473;-59
2021/08/23 09:15:35;;;;;;;28.70;25.87;;;17.10;99.90;;;;;;4980215;28;20476;-59
2021/08/23 09:18:05;;;;;;;27.20;24.70;;;17.40;99.90;;;;;;4980399;28;20960;-59
2021/08/23 09:20:33;;;;;;;27.00;24.37;;;17.70;99.90;;;;;;4979875;28;20552;-60
2021/08/23 09:23:12;;;;;;;29.33;26.80;;;17.70;99.90;;;;;;4979791;28;20536;-61
2021/08/23 09:25:41;;;;;;;30.27;27.37;;;17.50;99.90;;;;;;4979269;28;20473;-60
2021/08/23 09:28:09;;;;;;;41.97;37.93;;;17.40;99.90;;;;;;4980040;28;20488;-60
2021/08/23 09:30:37;;;;;;;47.13;42.97;;;17.30;99.90;;;;;;4979436;28;20800;-60
2021/08/23 09:33:07;;;;;;;46.20;42.00;;;17.20;99.90;;;;;;4979910;28;20894;-60
2021/08/23 09:35:36;;;;;;;46.57;42.17;;;17.30;99.90;;;;;;4979679;28;20816;-60
2021/08/23 09:38:04;;;;;;;47.83;43.03;;;17.30;99.90;;;;;;4980110;28;20768;-59
2021/08/23 09:40:32;;;;;;;42.70;38.70;;;17.30;99.90;;;;;;4978923;28;20498;-59
2021/08/23 09:43:03;;;;;;;41.43;37.43;;;17.40;99.90;;;;;;4979229;28;20465;-59
2021/08/23 09:45:30;;;;;;;38.23;34.73;;;17.40;99.90;;;;;;4979284;28;20937;-59
2021/08/23 09:48:01;;;;;;;36.37;33.10;;;17.30;99.90;;;;;;4979724;28;20466;-59
2021/08/23 09:50:39;;;;;;;38.47;34.87;;;17.30;99.90;;;;;;4979464;28;20891;-59
2021/08/23 09:53:08;;;;;;;37.43;33.73;;;17.40;99.90;;;;;;4979497;28;20551;-58
2021/08/23 10:32:53;;;;;;;27.23;24.57;;;19.10;99.90;;;;;;4996033;28;20864;-57
2021/08/23 10:35:29;;;;;;;25.77;23.37;;;19.40;99.90;;;;;;4998385;28;20456;-56
2021/08/23 10:37:56;;;;;;;25.43;23.10;;;19.70;99.90;;;;;;4997348;28;20467;-53
2021/08/23 10:40:25;;;;;;;22.70;20.67;;;19.90;99.90;;;;;;4998226;28;20532;-50
2021/08/23 10:42:55;;;;;;;23.43;21.43;;;20.00;99.90;;;;;;4998261;28;20464;-50
2021/08/23 10:45:26;;;;;;;21.43;19.53;;;20.40;99.90;;;;;;4984258;28;20521;-56
2021/08/23 10:47:56;;;;;;;19.90;18.20;;;20.30;99.90;;;;;;4978262;28;20766;-53
2021/08/23 10:50:25;;;;;;;20.33;18.53;;;20.60;99.90;;;;;;4976803;28;20569;-54
2021/08/23 10:52:55;;;;;;;20.40;18.70;;;21.00;99.90;;;;;;4978802;28;20496;-50
2021/08/23 10:55:24;;;;;;;22.30;20.40;;;20.80;99.90;;;;;;4986466;28;20457;-53
2021/08/23 10:58:04;;;;;;;22.50;20.50;;;20.50;99.90;;;;;;4995608;28;20464;-57
2021/08/23 11:00:37;;;;;;;21.60;19.50;;;20.50;99.90;;;;;;4981242;28;20488;-52
2021/08/23 11:03:06;;;;;;;23.00;21.10;;;20.50;99.90;;;;;;4988663;28;20472;-56
2021/08/23 11:05:34;;;;;;;22.30;20.30;;;20.70;99.90;;;;;;4994685;28;20527;-56
2021/08/23 11:08:07;;;;;;;19.93;18.13;;;20.70;99.90;;;;;;4978718;28;20470;-48
2021/08/23 11:10:39;;;;;;;19.40;17.70;;;20.80;99.90;;;;;;4992926;28;20949;-56
2021/08/23 11:13:15;;;;;;;19.50;17.80;;;21.00;99.90;;;;;;4977759;28;20469;-55
2021/08/23 11:15:43;;;;;;;20.10;18.43;;;20.60;99.90;;;;;;4977634;28;20958;-54
2021/08/23 11:18:12;;;;;;;19.83;18.03;;;20.10;99.90;;;;;;4977620;28;20760;-54
2021/08/23 11:20:43;;;;;;;21.80;19.80;;;20.00;99.90;;;;;;4977630;28;20523;-48
2021/08/23 11:23:11;;;;;;;24.17;22.10;;;19.90;99.90;;;;;;4977797;28;20556;-49
2021/08/23 11:25:41;;;;;;;25.43;23.27;;;19.80;99.90;;;;;;4977171;28;20465;-51
2021/08/23 11:28:10;;;;;;;23.93;21.90;;;19.60;99.90;;;;;;4996123;28;20937;-50
2021/08/23 11:30:42;;;;;;;24.87;22.73;;;19.60;99.90;;;;;;4995940;28;20824;-55
2021/08/23 11:33:12;;;;;;;26.60;24.40;;;19.70;99.90;;;;;;4996758;28;20464;-50
2021/08/23 11:35:39;;;;;;;26.23;23.70;;;19.60;99.90;;;;;;4996757;28;20882;-53
2021/08/23 11:38:08;;;;;;;23.37;21.40;;;19.50;99.90;;;;;;4996566;28;20465;-54
2021/08/23 11:40:40;;;;;;;23.43;21.33;;;19.60;99.90;;;;;;4987078;28;20594;-56
2021/08/23 11:43:11;;;;;;;24.07;21.97;;;19.80;99.90;;;;;;4986673;28;20497;-57
2021/08/23 11:45:40;;;;;;;25.57;23.20;;;20.20;99.90;;;;;;4986130;28;20457;-58
2021/08/23 11:48:10;;;;;;;25.23;23.03;;;20.40;99.90;;;;;;4987617;28;20529;-57
2021/08/23 11:50:41;;;;;;;25.37;23.20;;;20.30;99.90;;;;;;4988512;28;20454;-58
2021/08/23 11:53:10;;;;;;;25.23;22.63;;;20.80;99.90;;;;;;4989062;28;20937;-57
2021/08/23 11:55:39;;;;;;;23.43;21.03;;;21.30;99.90;;;;;;4988856;28;20517;-59
2021/08/23 11:58:08;;;;;;;25.57;23.40;;;21.40;99.90;;;;;;4989210;28;20520;-59
2021/08/23 12:00:36;;;;;;;23.40;21.40;;;21.20;99.90;;;;;;4990194;28;20484;-59
2021/08/23 12:03:09;;;;;;;23.10;21.10;;;21.40;99.90;;;;;;4989019;28;20964;-58
2021/08/23 12:05:40;;;;;;;20.57;18.97;;;21.90;99.90;;;;;;4987550;28;20462;-60
2021/08/23 12:40:17;;;;;;;23.50;21.30;;;19.50;99.90;;;;;;5128633;23;20492;-51
2021/08/23 12:42:44;;;;;;;24.30;21.90;;;19.40;99.90;;;;;;5008391;28;20918;-53
2021/08/23 12:45:12;;;;;;;24.20;22.00;;;19.60;99.90;;;;;;5010955;28;20497;-54
2021/08/23 12:47:44;;;;;;;23.30;21.20;;;20.00;99.90;;;;;;5019739;28;20455;-57
2021/08/23 12:50:11;;;;;;;23.23;20.83;;;20.50;99.90;;;;;;5018733;28;20554;-54
2021/08/23 12:52:38;;;;;;;20.97;19.17;;;20.80;99.90;;;;;;5019593;28;20531;-57
2021/08/23 12:55:06;;;;;;;20.67;18.90;;;21.50;99.90;;;;;;5019543;28;20459;-57
2021/08/23 12:57:34;;;;;;;20.33;18.43;;;21.40;99.90;;;;;;5019862;28;20513;-57
2021/08/23 13:00:07;;;;;;;21.47;19.47;;;21.40;99.90;;;;;;5018724;28;20546;-57
2021/08/23 13:02:39;;;;;;;20.30;18.40;;;21.30;99.90;;;;;;5019047;28;20507;-55
2021/08/23 13:05:09;;;;;;;21.00;19.10;;;20.60;99.90;;;;;;5019460;28;20529;-55
2021/08/23 13:07:38;;;;;;;20.37;18.47;;;20.30;99.90;;;;;;5019147;28;20522;-53
2021/08/23 13:10:09;;;;;;;19.90;18.10;;;20.30;99.90;;;;;;5018411;28;20457;-57
2021/08/23 13:12:40;;;;;;;20.00;17.83;;;20.60;99.90;;;;;;5001738;28;20475;-54
2021/08/23 13:50:36;;;;;;;18.33;16.67;;;20.70;99.90;;;;;;4507197;23;20505;-57
2021/08/23 13:53:04;;;;;;;18.27;16.57;;;20.90;99.90;;;;;;4999198;28;20457;-56
2021/08/23 13:55:31;;;;;;;17.67;15.90;;;20.80;99.90;;;;;;4998890;28;20523;-52
2021/08/23 13:57:58;;;;;;;17.27;15.87;;;20.60;99.90;;;;;;4998864;28;20464;-52
2021/08/23 14:00:25;;;;;;;18.80;16.07;;;20.80;99.90;;;;;;4998689;28;20528;-55
2021/08/23 14:02:53;;;;;;;17.93;16.27;;;21.00;99.90;;;;;;4986963;28;20528;-58
2021/08/23 14:05:21;;;;;;;18.37;16.77;;;21.20;99.90;;;;;;4978394;28;20925;-54
2021/08/23 14:07:53;;;;;;;18.70;17.10;;;21.40;99.90;;;;;;4978463;28;20505;-56
2021/08/23 14:10:21;;;;;;;17.07;15.47;;;21.30;99.90;;;;;;4978906;28;20470;-53
2021/08/23 14:12:49;;;;;;;18.57;16.97;;;21.10;99.90;;;;;;4995424;28;20469;-55
2021/08/23 14:15:16;;;;;;;19.83;16.17;;;21.60;99.90;;;;;;4998677;28;20810;-56
2021/08/23 14:17:43;;;;;;;15.23;13.77;;;22.10;99.90;;;;;;4998234;28;20465;-54
2021/08/23 14:20:13;;;;;;;18.80;17.20;;;22.10;99.90;;;;;;4998275;28;20492;-56
2021/08/23 14:22:43;;;;;;;16.50;15.10;;;21.90;99.90;;;;;;4998474;28;20468;-56
2021/08/23 14:25:12;;;;;;;17.53;16.07;;;21.20;99.90;;;;;;4997405;28;20508;-51
2021/08/23 14:27:42;;;;;;;17.80;16.10;;;21.20;99.90;;;;;;4997041;28;20898;-53
2021/08/23 14:30:10;;;;;;;17.47;15.87;;;21.30;99.90;;;;;;4998105;28;20910;-55
2021/08/23 14:32:38;;;;;;;15.57;14.00;;;21.00;99.90;;;;;;4998451;28;20465;-54
2021/08/23 14:35:06;;;;;;;18.43;16.73;;;20.70;99.90;;;;;;4998497;28;20563;-52
2021/08/23 14:37:33;;;;;;;17.33;15.73;;;20.80;99.90;;;;;;4986677;28;20474;-50
2021/08/23 14:40:00;;;;;;;16.17;14.83;;;20.50;99.90;;;;;;4978725;28;20512;-50
2021/08/23 14:42:28;;;;;;;17.47;15.97;;;20.60;99.90;;;;;;4990055;28;20792;-49
2021/08/23 14:45:00;;;;;;;17.10;15.33;;;20.70;99.90;;;;;;4979058;28;20473;-57
2021/08/23 14:47:27;;;;;;;15.53;14.07;;;20.70;99.90;;;;;;4984487;28;20457;-55
2021/08/23 14:49:55;;;;;;;14.73;13.43;;;21.10;99.90;;;;;;4996442;28;20493;-55
2021/08/23 14:52:22;;;;;;;16.20;14.60;;;21.20;99.90;;;;;;4983673;28;20930;-58
2021/08/23 14:54:49;;;;;;;14.47;13.27;;;21.40;99.90;;;;;;4996728;28;20465;-57
2021/08/23 14:57:21;;;;;;;14.27;12.83;;;21.90;99.90;;;;;;4997188;28;20622;-58
2021/08/23 14:59:49;;;;;;;13.30;12.30;;;22.30;99.90;;;;;;4996662;28;20749;-56
2021/08/23 15:02:16;;;;;;;14.10;12.60;;;22.30;99.90;;;;;;4997724;28;20500;-58
2021/08/23 15:04:43;;;;;;;13.30;12.20;;;22.00;99.90;;;;;;4998119;28;20826;-57
2021/08/23 15:07:10;;;;;;;13.47;12.27;;;22.10;99.90;;;;;;4997970;28;20763;-57
2021/08/23 15:09:40;;;;;;;13.70;11.40;;;22.50;99.90;;;;;;4978285;28;20466;-55
2021/08/23 15:12:10;;;;;;;12.13;11.07;;;22.90;99.90;;;;;;4978341;28;20490;-58
2021/08/23 15:14:40;;;;;;;12.10;11.00;;;22.90;99.90;;;;;;4978097;28;20466;-58
2021/08/23 15:17:10;;;;;;;11.40;10.30;;;22.90;99.90;;;;;;4977274;28;20476;-58
2021/08/23 15:19:37;;;;;;;11.07;10.00;;;23.10;99.90;;;;;;4980717;28;20913;-57
2021/08/23 15:22:05;;;;;;;10.50;9.57;;;23.40;99.90;;;;;;4997036;28;20987;-56
2021/08/23 15:24:36;;;;;;;10.60;9.50;;;23.90;99.90;;;;;;5000663;28;20503;-52
2021/08/23 15:27:03;;;;;;;10.17;9.20;;;24.10;98.70;;;;;;5001307;28;20475;-58
2021/08/23 15:29:30;;;;;;;8.60;7.90;;;23.60;97.90;;;;;;5001038;28;20496;-57
2021/08/23 15:31:58;;;;;;;9.73;8.87;;;23.60;97.90;;;;;;5000996;28;20559;-58
2021/08/23 15:34:27;;;;;;;10.33;9.20;;;23.50;97.60;;;;;;5000816;28;20496;-56
2021/08/23 15:36:54;;;;;;;9.50;8.60;;;23.10;98.10;;;;;;5000583;28;20504;-54
2021/08/23 15:39:21;;;;;;;9.20;8.40;;;23.10;99.90;;;;;;5001848;28;20539;-55
2021/08/23 15:41:48;;;;;;;10.37;9.50;;;23.20;99.40;;;;;;5000917;28;20591;-56
2021/08/23 15:44:15;;;;;;;9.93;9.03;;;23.10;99.90;;;;;;5001368;28;20824;-54
2021/08/23 15:46:42;;;;;;;8.83;7.90;;;22.60;99.90;;;;;;5001306;28;20819;-56
2021/08/23 16:22:03;;;;;;;7.90;7.10;;;22.20;99.90;;;;;;5479198;23;21668;-59
2021/08/23 16:24:30;;;;;;;9.13;7.17;;;21.90;99.90;;;;;;4988738;28;20497;-56
2021/08/23 16:27:02;;;;;;;8.60;7.90;;;21.90;99.90;;;;;;4980864;28;20466;-56
2021/08/23 16:29:29;;;;;;;7.37;6.77;;;21.80;99.90;;;;;;4981053;28;20572;-54
2021/08/23 16:31:57;;;;;;;8.53;7.83;;;21.70;99.90;;;;;;4981621;28;20593;-53
2021/08/23 16:34:26;;;;;;;7.90;7.13;;;21.40;99.90;;;;;;4980536;28;20561;-55
2021/08/23 16:36:55;;;;;;;7.90;7.20;;;21.40;99.90;;;;;;4980676;28;20898;-57
2021/08/23 16:39:24;;;;;;;7.70;7.00;;;21.30;99.90;;;;;;4981059;28;20520;-50
2021/08/23 16:41:52;;;;;;;7.37;6.77;;;21.00;99.90;;;;;;4980403;28;20580;-53
2021/08/23 16:44:19;;;;;;;7.47;6.87;;;21.00;99.90;;;;;;4996691;28;20481;-56
2021/08/23 16:46:46;;;;;;;7.80;7.20;;;21.20;99.90;;;;;;5000395;28;20469;-53
2021/08/23 16:49:16;;;;;;;7.27;6.67;;;21.00;99.90;;;;;;5000452;28;20461;-54
2021/08/23 16:51:43;;;;;;;7.77;7.07;;;20.70;99.90;;;;;;5000544;28;20472;-56
2021/08/23 16:54:10;;;;;;;7.80;6.40;;;20.70;99.90;;;;;;4999818;28;20515;-53
2021/08/23 16:56:39;;;;;;;7.97;7.27;;;20.50;99.90;;;;;;4999876;28;20507;-50
2021/08/23 16:59:06;;;;;;;7.00;6.30;;;20.50;99.90;;;;;;4999965;28;20508;-49
2021/08/23 17:01:35;;;;;;;8.07;6.90;;;20.40;99.90;;;;;;5000500;28;20944;-51
2021/08/23 17:04:04;;;;;;;6.83;5.93;;;20.30;99.90;;;;;;5000049;28;20493;-49
2021/08/23 17:06:34;;;;;;;6.90;6.40;;;20.40;99.90;;;;;;4999546;28;20472;-56
2021/08/23 17:09:01;;;;;;;7.07;6.37;;;20.30;99.90;;;;;;4999795;28;20833;-56
2021/08/23 17:11:28;;;;;;;6.73;6.23;;;20.30;99.90;;;;;;5000050;28;20501;-56
2021/08/23 17:13:57;;;;;;;7.20;6.40;;;20.50;99.90;;;;;;4999885;28;20472;-56
2021/08/23 17:16:24;;;;;;;6.93;6.07;;;20.50;99.90;;;;;;4991086;28;20524;-56
2021/08/23 17:18:51;;;;;;;6.47;5.80;;;20.60;99.90;;;;;;4988555;28;20492;-56
2021/08/23 17:21:18;;;;;;;6.47;5.90;;;20.70;99.90;;;;;;4989070;28;20493;-56
2021/08/23 17:23:48;;;;;;;7.67;7.07;;;20.70;99.90;;;;;;5003897;28;20522;-56
2021/08/23 18:00:43;;;;;;;8.10;7.37;;;19.30;99.90;;;;;;941808;23;21877;-57
2021/08/23 18:03:10;;;;;;;6.80;6.10;;;19.20;99.90;;;;;;4968430;28;20781;-56
2021/08/23 18:05:39;;;;;;;7.20;6.60;;;19.10;99.90;;;;;;4966186;28;20933;-52
2021/08/23 18:08:06;;;;;;;8.10;7.40;;;19.00;99.90;;;;;;4967149;28;20895;-50
2021/08/23 18:10:33;;;;;;;8.60;7.90;;;18.90;99.90;;;;;;4965563;28;20502;-53
2021/08/23 18:13:00;;;;;;;7.90;7.20;;;18.90;99.90;;;;;;4969326;28;20548;-54
2021/08/23 18:15:28;;;;;;;8.70;7.90;;;18.80;99.90;;;;;;4967479;28;20463;-56
2021/08/23 18:17:56;;;;;;;8.23;7.43;;;18.80;99.90;;;;;;4965836;28;20648;-55
2021/08/23 18:20:23;;;;;;;8.17;7.47;;;18.70;99.90;;;;;;4966018;28;20505;-58